Time;durP1;ratioP1;P1;durP2;ratioP2;P2;SDS_P1;SDS_P2;PMS_P1;PMS_P2;Temp;Humidity;BMP_temperature;BMP_pressure;BME280_temperature;BME280_humidity;BME280_pressure;Samples;Min_cycle;Max_cycle;Signal;HPM_P1;HPM_P2
2022/06/23 00:01:23;;;;;;;0.00;0.00;;;19.40;99.90;;;;;;5033982;28;20025;-73
2022/06/23 00:03:54;;;;;;;0.00;0.00;;;19.30;99.90;;;;;;5032787;28;20465;-73
2022/06/23 00:07:05;;;;;;;0.00;0.00;;;19.30;99.90;;;;;;4999527;28;20186;-73
2022/06/23 00:09:43;;;;;;;0.47;0.17;;;19.40;99.90;;;;;;5027918;28;20431;-73
2022/06/23 00:12:39;;;;;;;7.47;1.23;;;19.10;99.90;;;;;;5034016;28;20025;-74
2022/06/23 00:15:04;;;;;;;0.03;0.03;;;18.90;99.90;;;;;;5027187;28;20148;-73
2022/06/23 00:17:43;;;;;;;0.30;0.30;;;18.90;99.90;;;;;;4999265;28;20053;-73
2022/06/23 00:20:31;;;;;;;0.08;0.08;;;18.90;99.90;;;;;;4999499;28;20076;-74
2022/06/23 00:23:09;;;;;;;0.00;0.00;;;18.90;99.90;;;;;;4999460;28;20033;-73
2022/06/23 00:25:47;;;;;;;1.85;1.10;;;18.90;99.90;;;;;;5032399;28;20477;-73
2022/06/23 00:28:18;;;;;;;2.35;0.65;;;18.80;99.90;;;;;;5033285;28;20030;-73
2022/06/23 00:30:44;;;;;;;0.20;0.20;;;18.50;99.90;;;;;;4999163;28;20432;-73
2022/06/23 00:33:19;;;;;;;0.20;0.20;;;18.20;99.90;;;;;;5015457;28;20477;-73
2022/06/23 00:35:48;;;;;;;0.00;0.00;;;18.20;99.90;;;;;;5015448;28;20032;-73
2022/06/23 00:38:28;;;;;;;0.10;0.10;;;18.20;99.90;;;;;;5015273;28;20560;-73
2022/06/23 00:40:55;;;;;;;0.30;0.30;;;18.20;99.90;;;;;;5015449;28;20424;-73
2022/06/23 00:43:22;;;;;;;0.00;0.00;;;18.30;99.90;;;;;;5015243;28;20079;-74
2022/06/23 00:46:15;;;;;;;0.00;0.00;;;18.40;99.90;;;;;;5015356;28;20021;-73
2022/06/23 00:48:53;;;;;;;0.00;0.00;;;18.50;99.90;;;;;;5033009;28;20547;-74
2022/06/23 00:51:37;;;;;;;3.35;3.10;;;18.70;99.90;;;;;;4998871;28;20029;-73
2022/06/23 00:54:32;;;;;;;0.00;0.00;;;18.90;99.90;;;;;;5032974;28;20100;-73
2022/06/23 00:57:13;;;;;;;0.00;0.00;;;19.00;99.90;;;;;;5027234;28;20128;-74
2022/06/23 00:59:47;;;;;;;0.00;0.00;;;19.10;99.90;;;;;;5015019;28;20352;-73
2022/06/23 01:02:25;;;;;;;0.00;0.00;;;19.20;99.90;;;;;;5032785;28;20021;-73
2022/06/23 01:05:03;;;;;;;0.00;0.00;;;19.10;99.90;;;;;;5015039;28;20021;-74
2022/06/23 01:07:59;;;;;;;0.10;0.10;;;19.20;99.90;;;;;;5014854;28;20022;-73
2022/06/23 01:10:45;;;;;;;0.00;0.00;;;19.40;99.90;;;;;;5032463;28;20075;-73
2022/06/23 01:13:30;;;;;;;0.10;0.10;;;19.50;99.90;;;;;;4998423;28;20025;-74
2022/06/23 01:16:05;;;;;;;0.00;0.00;;;19.40;99.90;;;;;;4998549;28;20392;-74
2022/06/23 01:18:49;;;;;;;0.00;0.00;;;19.20;99.90;;;;;;5032111;28;20026;-74
2022/06/23 01:21:21;;;;;;;0.00;0.00;;;19.20;99.90;;;;;;5032615;28;20104;-74
2022/06/23 01:23:57;;;;;;;0.00;0.00;;;19.20;99.90;;;;;;5014703;28;20022;-74
2022/06/23 01:26:43;;;;;;;0.00;0.00;;;19.20;99.90;;;;;;4998203;28;20507;-74
2022/06/23 01:29:15;;;;;;;0.10;0.10;;;19.10;99.90;;;;;;5014545;28;20386;-74
2022/06/23 01:31:53;;;;;;;0.00;0.00;;;19.00;99.90;;;;;;5032339;28;20018;-74
2022/06/23 01:34:31;;;;;;;0.00;0.00;;;18.90;99.90;;;;;;5032264;28;20017;-74
2022/06/23 01:37:06;;;;;;;0.00;0.00;;;18.90;99.90;;;;;;5014052;28;20025;-74
2022/06/23 01:39:53;;;;;;;0.00;0.00;;;19.00;99.90;;;;;;5014635;28;20113;-74
2022/06/23 01:42:19;;;;;;;0.00;0.00;;;19.10;99.90;;;;;;4998142;28;20029;-74
2022/06/23 01:45:06;;;;;;;0.00;0.00;;;19.00;99.90;;;;;;5032118;28;20539;-74
2022/06/23 01:47:44;;;;;;;0.00;0.00;;;19.00;99.90;;;;;;5031900;28;20017;-74
2022/06/23 01:50:13;;;;;;;0.00;0.00;;;18.90;99.90;;;;;;5032055;28;20064;-74
2022/06/23 01:52:41;;;;;;;0.00;0.00;;;18.90;99.90;;;;;;5014306;28;20061;-74
2022/06/23 01:55:15;;;;;;;0.00;0.00;;;19.00;99.90;;;;;;5014392;28;20033;-74
2022/06/23 01:57:48;;;;;;;0.10;0.10;;;19.00;99.90;;;;;;5013935;28;20116;-74
2022/06/23 02:00:20;;;;;;;0.00;0.00;;;18.90;99.90;;;;;;5031758;28;20477;-74
2022/06/23 02:02:58;;;;;;;0.10;0.10;;;19.10;99.90;;;;;;5031946;28;20117;-74
2022/06/23 02:05:30;;;;;;;0.10;0.10;;;18.90;99.90;;;;;;4998017;28;20029;-74
2022/06/23 02:08:07;;;;;;;0.00;0.00;;;18.70;99.90;;;;;;4997625;28;20026;-74
2022/06/23 02:10:53;;;;;;;0.00;0.00;;;18.70;99.90;;;;;;5013990;28;20030;-74
2022/06/23 02:13:45;;;;;;;0.10;0.10;;;18.80;99.90;;;;;;5031735;28;20017;-74
2022/06/23 02:16:52;;;;;;;0.03;0.03;;;18.80;99.90;;;;;;5031866;28;20033;-74
2022/06/23 02:19:45;;;;;;;1.25;1.20;;;18.80;99.90;;;;;;4954328;28;20117;-74
2022/06/23 02:22:20;;;;;;;0.00;0.00;;;18.90;99.90;;;;;;5031764;28;20026;-74
2022/06/23 02:24:48;;;;;;;0.00;0.00;;;19.00;99.90;;;;;;5031668;28;20033;-74
2022/06/23 02:27:23;;;;;;;0.05;0.05;;;18.90;99.90;;;;;;5014102;28;20104;-74
2022/06/23 02:30:24;;;;;;;0.10;0.10;;;19.00;99.90;;;;;;5031649;28;20029;-74
2022/06/23 02:32:50;;;;;;;0.03;0.03;;;19.10;99.90;;;;;;5014064;28;20025;-74
2022/06/23 02:35:42;;;;;;;0.05;0.05;;;19.00;99.90;;;;;;5014180;28;20037;-74
2022/06/23 02:38:17;;;;;;;0.08;0.08;;;18.90;99.90;;;;;;5028577;28;20060;-74
2022/06/23 02:40:48;;;;;;;0.00;0.00;;;18.90;99.90;;;;;;5031543;28;20135;-74
2022/06/23 02:43:14;;;;;;;0.00;0.00;;;18.90;99.90;;;;;;5013900;28;20033;-74
2022/06/23 02:46:01;;;;;;;0.00;0.00;;;18.80;99.90;;;;;;4997475;28;20071;-74
2022/06/23 02:48:45;;;;;;;0.03;0.03;;;18.80;99.90;;;;;;5014296;28;20100;-74
2022/06/23 02:51:51;;;;;;;0.00;0.00;;;18.70;99.90;;;;;;5017551;28;20037;-74
2022/06/23 02:54:25;;;;;;;2.53;1.05;;;18.70;99.90;;;;;;5035227;28;20025;-74
2022/06/23 02:56:54;;;;;;;0.05;0.05;;;18.50;99.90;;;;;;5017158;28;20118;-74
2022/06/23 02:59:59;;;;;;;0.10;0.10;;;18.40;99.90;;;;;;5034849;28;20532;-74
2022/06/23 03:02:48;;;;;;;0.00;0.00;;;18.20;99.90;;;;;;5033818;28;20033;-74
2022/06/23 03:05:26;;;;;;;0.25;0.20;;;18.20;99.90;;;;;;5017180;28;20072;-74
2022/06/23 03:08:03;;;;;;;0.15;0.15;;;18.20;99.90;;;;;;5034835;28;20055;-74
2022/06/23 03:10:41;;;;;;;0.00;0.00;;;18.10;99.90;;;;;;5016932;28;20026;-74
2022/06/23 03:13:25;;;;;;;0.10;0.10;;;18.00;99.90;;;;;;5016945;28;20113;-74
2022/06/23 03:16:05;;;;;;;3.00;1.27;;;17.90;99.90;;;;;;5034797;28;20393;-74
2022/06/23 03:18:34;;;;;;;1.17;1.08;;;17.80;99.90;;;;;;5034341;28;20033;-74
2022/06/23 03:21:11;;;;;;;0.00;0.00;;;17.80;99.90;;;;;;5034599;28;20030;-74
2022/06/23 03:24:11;;;;;;;0.00;0.00;;;17.90;99.90;;;;;;5016926;28;20450;-74
2022/06/23 03:26:40;;;;;;;0.10;0.10;;;17.90;99.90;;;;;;5006295;28;20025;-74
2022/06/23 03:29:11;;;;;;;0.10;0.10;;;18.00;99.90;;;;;;5016647;28;20022;-74
2022/06/23 03:31:43;;;;;;;0.77;0.20;;;18.00;99.90;;;;;;5016767;28;20018;-74
2022/06/23 03:34:14;;;;;;;;;;;18.00;99.90;;;;;;5017319;28;20091;-74
2022/06/23 03:36:46;;;;;;;3.67;2.80;;;17.70;99.90;;;;;;5016902;28;20311;-74
2022/06/23 03:42:27;;;;;;;0.10;0.10;;;17.80;99.90;;;;;;5016477;28;20113;-74
2022/06/23 03:44:53;;;;;;;0.00;0.00;;;18.00;99.90;;;;;;5000162;28;20032;-74
2022/06/23 03:47:26;;;;;;;0.00;0.00;;;17.90;99.90;;;;;;5016291;28;20025;-74
2022/06/23 03:50:00;;;;;;;0.03;0.03;;;18.00;99.90;;;;;;5016326;28;20544;-74
2022/06/23 03:52:36;;;;;;;0.00;0.00;;;18.10;99.90;;;;;;5034379;28;20116;-74
2022/06/23 03:55:25;;;;;;;1.00;0.47;;;18.10;99.90;;;;;;5016232;28;20400;-74
2022/06/23 03:58:11;;;;;;;0.00;0.00;;;18.10;99.90;;;;;;5039337;23;20049;-75
2022/06/23 04:00:39;;;;;;;0.10;0.10;;;17.80;99.90;;;;;;5035949;28;20025;-75
2022/06/23 04:03:42;;;;;;;0.00;0.00;;;17.70;99.90;;;;;;5053891;28;20040;-74
2022/06/23 04:06:41;;;;;;;0.00;0.00;;;17.80;99.90;;;;;;5038354;28;20037;-75
2022/06/23 04:09:32;;;;;;;0.20;0.20;;;17.80;99.90;;;;;;5035378;28;20037;-75
2022/06/23 04:12:07;;;;;;;0.00;0.00;;;17.80;99.90;;;;;;5053680;28;20096;-74
2022/06/23 04:14:39;;;;;;;0.00;0.00;;;17.70;99.90;;;;;;5053795;28;20405;-75
2022/06/23 04:17:16;;;;;;;;;;;17.80;99.90;;;;;;5019559;28;20416;-75
2022/06/23 04:19:47;;;;;;;0.00;0.00;;;17.70;99.90;;;;;;5019081;28;20288;-75
2022/06/23 04:22:22;;;;;;;0.00;0.00;;;17.80;99.90;;;;;;5053549;28;20052;-75
2022/06/23 04:24:52;;;;;;;0.00;0.00;;;18.00;99.90;;;;;;5053418;28;20021;-75
2022/06/23 04:27:24;;;;;;;0.00;0.00;;;18.30;99.90;;;;;;5019013;28;20322;-75
2022/06/23 04:29:53;;;;;;;0.05;0.05;;;18.30;99.90;;;;;;5053257;28;20027;-74
2022/06/23 04:32:33;;;;;;;0.05;0.05;;;18.30;99.90;;;;;;5053471;28;20025;-75
2022/06/23 04:35:06;;;;;;;0.10;0.10;;;18.40;99.90;;;;;;5053346;28;20047;-75
2022/06/23 04:37:54;;;;;;;0.00;0.00;;;18.60;99.90;;;;;;5035334;28;20025;-75
2022/06/23 04:40:33;;;;;;;0.30;0.30;;;18.50;99.90;;;;;;5052851;28;20024;-75
2022/06/23 04:43:12;;;;;;;2.17;0.90;;;18.40;99.90;;;;;;5053154;28;20031;-75
2022/06/23 04:46:12;;;;;;;0.10;0.10;;;18.30;99.90;;;;;;5053205;28;20115;-75
2022/06/23 04:48:38;;;;;;;0.03;0.03;;;18.20;99.90;;;;;;5039395;28;20311;-75
2022/06/23 04:51:28;;;;;;;0.10;0.10;;;18.30;99.90;;;;;;5053075;28;20029;-75
2022/06/23 04:54:07;;;;;;;0.10;0.10;;;18.40;99.90;;;;;;5052900;28;20064;-75
2022/06/23 04:56:57;;;;;;;0.00;0.00;;;18.30;99.90;;;;;;5018600;28;20044;-75
2022/06/23 04:59:38;;;;;;;0.10;0.10;;;18.50;99.90;;;;;;5034759;28;20029;-75
2022/06/23 05:02:29;;;;;;;0.00;0.00;;;18.60;99.90;;;;;;5034967;28;20438;-75
2022/06/23 05:05:07;;;;;;;0.00;0.00;;;18.60;99.90;;;;;;5034837;28;20029;-75
2022/06/23 05:07:51;;;;;;;0.10;0.10;;;18.70;99.90;;;;;;5034664;28;20430;-75
2022/06/23 05:10:23;;;;;;;0.03;0.03;;;18.70;99.90;;;;;;5034688;28;20380;-75
2022/06/23 05:13:06;;;;;;;0.10;0.10;;;18.90;99.90;;;;;;5032912;28;20032;-75
2022/06/23 05:15:43;;;;;;;0.00;0.00;;;19.10;99.90;;;;;;5035975;28;20484;-75
2022/06/23 05:18:15;;;;;;;0.00;0.00;;;19.30;99.90;;;;;;5052252;28;20060;-75
2022/06/23 05:20:48;;;;;;;0.00;0.00;;;19.30;99.90;;;;;;5052249;28;20025;-75
2022/06/23 05:23:20;;;;;;;18.33;16.55;;;19.40;99.90;;;;;;5052293;28;20052;-75
2022/06/23 05:25:49;;;;;;;0.00;0.00;;;19.50;99.90;;;;;;5034857;28;20021;-75
2022/06/23 05:28:24;;;;;;;0.08;0.08;;;19.60;99.90;;;;;;5051933;28;20500;-75
2022/06/23 05:30:53;;;;;;;0.10;0.10;;;19.60;99.90;;;;;;5034449;28;20365;-74
2022/06/23 05:33:41;;;;;;;0.00;0.00;;;19.70;99.90;;;;;;5052182;28;20017;-75
2022/06/23 05:36:24;;;;;;;0.00;0.00;;;19.80;99.90;;;;;;5052256;28;20028;-75
2022/06/23 05:39:01;;;;;;;0.77;0.22;;;20.00;99.90;;;;;;5051634;28;20476;-75
2022/06/23 05:41:39;;;;;;;2.08;1.92;;;20.10;99.90;;;;;;5052160;28;20484;-75
2022/06/23 05:44:18;;;;;;;0.00;0.00;;;20.00;99.90;;;;;;5034116;28;20028;-74
2022/06/23 05:46:46;;;;;;;0.00;0.00;;;20.00;99.90;;;;;;5051741;28;20029;-75
2022/06/23 05:49:26;;;;;;;0.00;0.00;;;20.00;99.90;;;;;;5051417;28;20028;-74
2022/06/23 05:51:59;;;;;;;0.00;0.00;;;20.20;99.90;;;;;;5034139;28;20040;-75
2022/06/23 05:54:38;;;;;;;0.00;0.00;;;20.30;99.90;;;;;;5033801;28;20084;-75
2022/06/23 05:57:09;;;;;;;0.00;0.00;;;20.40;99.90;;;;;;5051617;28;20021;-75
2022/06/23 06:00:07;;;;;;;0.00;0.00;;;20.60;99.90;;;;;;5051545;28;20032;-75
2022/06/23 06:02:39;;;;;;;0.10;0.10;;;20.80;99.90;;;;;;5033701;28;20092;-75
2022/06/23 06:05:10;;;;;;;0.00;0.00;;;20.90;99.90;;;;;;5050145;28;20025;-75
2022/06/23 06:07:40;;;;;;;0.45;0.45;;;21.00;99.90;;;;;;5050988;28;20013;-75
2022/06/23 06:10:15;;;;;;;0.00;0.00;;;21.00;99.90;;;;;;5051664;28;20464;-75
2022/06/23 06:12:43;;;;;;;0.10;0.10;;;21.20;99.90;;;;;;5051944;28;20421;-74
2022/06/23 06:15:23;;;;;;;0.00;0.00;;;21.20;99.90;;;;;;5051560;28;20427;-74
2022/06/23 06:17:52;;;;;;;0.00;0.00;;;21.40;99.90;;;;;;5033625;28;20353;-75
2022/06/23 06:20:23;;;;;;;0.10;0.10;;;21.50;99.90;;;;;;5032690;28;20495;-75
2022/06/23 06:23:15;;;;;;;0.03;0.03;;;21.60;99.90;;;;;;5051669;28;20028;-75
2022/06/23 06:25:43;;;;;;;;;;;21.80;99.90;;;;;;5005438;28;20034;-75
2022/06/23 06:28:21;;;;;;;0.00;0.00;;;22.00;99.90;;;;;;5037387;28;19912;-74
2022/06/23 06:31:02;;;;;;;0.10;0.10;;;22.20;99.90;;;;;;5037828;28;20103;-75
2022/06/23 06:33:36;;;;;;;0.00;0.00;;;22.20;99.90;;;;;;5037731;28;20025;-75
2022/06/23 06:36:20;;;;;;;0.10;0.10;;;22.10;99.90;;;;;;5055383;28;20048;-75
2022/06/23 06:38:46;;;;;;;0.03;0.03;;;22.30;99.90;;;;;;5055330;28;20032;-75
2022/06/23 06:41:11;;;;;;;0.00;0.00;;;22.40;99.90;;;;;;5055240;28;20033;-75
2022/06/23 06:43:38;;;;;;;0.00;0.00;;;22.50;99.90;;;;;;5055447;28;20104;-76
2022/06/23 06:46:04;;;;;;;3.20;2.38;;;22.60;99.90;;;;;;5037451;28;20029;-75
2022/06/23 06:48:35;;;;;;;0.00;0.00;;;22.70;99.90;;;;;;5054953;28;20025;-75
2022/06/23 06:51:08;;;;;;;0.00;0.00;;;22.80;99.90;;;;;;5055267;28;20140;-75
2022/06/23 06:53:49;;;;;;;1.40;1.30;;;23.00;99.90;;;;;;5037328;28;20036;-75
2022/06/23 06:56:37;;;;;;;0.00;0.00;;;23.10;99.90;;;;;;5037289;28;20055;-75
2022/06/23 06:59:14;;;;;;;0.00;0.00;;;23.30;99.90;;;;;;5054853;28;20033;-76
2022/06/23 07:01:45;;;;;;;0.00;0.00;;;23.40;99.90;;;;;;5055355;28;20140;-78
2022/06/23 07:04:25;;;;;;;0.00;0.00;;;23.50;99.90;;;;;;5057609;28;20068;-77
2022/06/23 07:07:16;;;;;;;0.00;0.00;;;23.50;99.90;;;;;;5039221;28;20108;-77
2022/06/23 07:09:51;;;;;;;0.00;0.00;;;23.70;99.90;;;;;;5056607;28;20075;-77
2022/06/23 07:12:49;;;;;;;0.00;0.00;;;23.60;99.90;;;;;;5038546;28;20025;-78
2022/06/23 07:15:34;;;;;;;0.00;0.00;;;23.60;99.90;;;;;;5031143;28;20037;-77
2022/06/23 07:18:17;;;;;;;0.00;0.00;;;23.90;99.30;;;;;;5038881;28;20049;-77
2022/06/23 07:21:04;;;;;;;0.10;0.10;;;24.00;98.90;;;;;;5057103;28;20469;-77
2022/06/23 07:23:49;;;;;;;0.00;0.00;;;24.10;98.60;;;;;;5057345;28;20025;-77
2022/06/23 07:26:17;;;;;;;0.00;0.00;;;24.20;97.30;;;;;;5038676;28;20025;-77
2022/06/23 07:28:50;;;;;;;0.00;0.00;;;24.40;97.90;;;;;;5056520;28;20029;-77
2022/06/23 07:31:30;;;;;;;0.00;0.00;;;24.60;95.80;;;;;;5039133;28;20110;-77
2022/06/23 07:34:07;;;;;;;0.00;0.00;;;24.70;93.20;;;;;;5057593;28;20477;-78
2022/06/23 07:36:58;;;;;;;0.08;0.08;;;24.50;93.90;;;;;;5045478;28;20577;-76
2022/06/23 07:39:37;;;;;;;0.00;0.00;;;24.60;94.30;;;;;;5065035;28;20435;-77
2022/06/23 07:42:05;;;;;;;0.00;0.00;;;24.60;96.00;;;;;;5066611;28;20077;-78
2022/06/23 07:44:36;;;;;;;0.00;0.00;;;24.80;96.30;;;;;;5046586;28;20029;-77
2022/06/23 07:47:03;;;;;;;0.00;0.00;;;24.90;94.90;;;;;;5059339;28;20116;-77
2022/06/23 07:49:31;;;;;;;0.00;0.00;;;25.00;96.60;;;;;;5038187;28;20044;-77
2022/06/23 07:51:57;;;;;;;0.40;0.40;;;25.10;95.80;;;;;;5039291;28;20059;-77
2022/06/23 07:54:23;;;;;;;0.00;0.00;;;25.10;97.10;;;;;;5038647;28;20021;-77
2022/06/23 07:56:51;;;;;;;4.68;1.00;;;25.30;96.70;;;;;;5056673;28;20032;-77
2022/06/23 07:59:19;;;;;;;0.10;0.10;;;25.20;95.50;;;;;;5022429;28;20033;-77
2022/06/23 08:01:48;;;;;;;11.88;0.85;;;25.10;95.20;;;;;;5056250;28;20487;-77
2022/06/23 08:04:44;;;;;;;0.35;0.35;;;25.10;95.80;;;;;;5056167;28;20021;-77
2022/06/23 08:07:12;;;;;;;0.00;0.00;;;25.10;95.40;;;;;;5055854;28;20021;-77
2022/06/23 08:09:48;;;;;;;0.00;0.00;;;25.20;95.00;;;;;;5059977;28;20036;-78
2022/06/23 08:18:07;;;;;;;0.13;0.13;;;25.90;94.00;;;;;;5063439;28;20025;-78
2022/06/23 08:20:38;;;;;;;0.88;0.75;;;25.90;93.60;;;;;;5061864;28;20028;-77
2022/06/23 08:23:07;;;;;;;0.10;0.10;;;26.00;92.30;;;;;;5063414;28;20100;-78
2022/06/23 08:25:34;;;;;;;0.43;0.43;;;25.90;92.10;;;;;;5045993;28;20033;-78
2022/06/23 08:28:01;;;;;;;0.00;0.00;;;26.00;93.10;;;;;;5063533;28;20032;-78
2022/06/23 08:30:28;;;;;;;0.35;0.35;;;26.30;92.60;;;;;;5044998;28;20021;-78
2022/06/23 08:32:55;;;;;;;0.08;0.08;;;26.20;92.20;;;;;;5063190;28;20032;-78
2022/06/23 08:35:23;;;;;;;0.10;0.10;;;26.40;91.20;;;;;;5062750;28;20084;-77
2022/06/23 08:38:01;;;;;;;7.60;6.15;;;26.50;90.90;;;;;;5062890;28;20029;-78
2022/06/23 08:40:54;;;;;;;5.22;0.55;;;26.60;90.30;;;;;;5045696;28;20429;-77
2022/06/23 08:43:51;;;;;;;0.00;0.00;;;26.60;89.50;;;;;;5030690;28;20108;-78
2022/06/23 08:46:17;;;;;;;0.00;0.00;;;26.90;88.80;;;;;;5062678;28;20046;-78
2022/06/23 08:49:03;;;;;;;19.88;0.45;;;26.90;86.70;;;;;;5060786;28;20032;-77
2022/06/23 08:51:31;;;;;;;0.32;0.30;;;26.90;87.70;;;;;;5045469;28;20111;-78
2022/06/23 08:54:16;;;;;;;0.00;0.00;;;27.20;84.40;;;;;;5039103;28;20440;-77
2022/06/23 08:56:41;;;;;;;2.60;0.98;;;27.10;83.80;;;;;;5056804;28;20029;-76
2022/06/23 08:59:19;;;;;;;0.00;0.00;;;27.00;82.70;;;;;;5023540;28;20040;-77
2022/06/23 09:02:03;;;;;;;9.55;2.40;;;27.30;82.00;;;;;;5040244;28;20502;-77
2022/06/23 09:05:08;;;;;;;0.00;0.00;;;27.30;81.50;;;;;;5040352;28;20021;-77
2022/06/23 09:07:45;;;;;;;0.20;0.20;;;27.50;80.70;;;;;;5054624;28;20047;-77
2022/06/23 09:10:36;;;;;;;0.00;0.00;;;27.50;79.70;;;;;;5039649;28;20116;-77
2022/06/23 09:13:17;;;;;;;0.00;0.00;;;27.60;79.20;;;;;;5057887;28;20025;-77
2022/06/23 09:15:51;;;;;;;0.10;0.10;;;27.50;77.90;;;;;;5058368;28;20272;-77
2022/06/23 09:18:46;;;;;;;2.47;0.75;;;28.00;76.80;;;;;;5053524;28;20041;-75
2022/06/23 09:21:45;;;;;;;0.00;0.00;;;28.10;77.30;;;;;;5058366;28;20124;-77
2022/06/23 09:24:28;;;;;;;0.00;0.00;;;28.50;75.10;;;;;;5044098;28;20025;-77
2022/06/23 09:26:59;;;;;;;0.20;0.20;;;28.80;74.90;;;;;;5041311;28;20025;-78
2022/06/23 09:29:50;;;;;;;0.00;0.00;;;28.70;71.40;;;;;;5023721;28;20037;-78
2022/06/23 09:32:46;;;;;;;0.00;0.00;;;28.80;67.60;;;;;;5040846;28;20090;-78
2022/06/23 09:35:12;;;;;;;0.00;0.00;;;28.90;67.50;;;;;;5039967;28;20027;-76
2022/06/23 09:37:53;;;;;;;0.98;0.40;;;29.10;66.50;;;;;;5052401;28;20469;-78
2022/06/23 09:40:40;;;;;;;0.00;0.00;;;28.80;69.20;;;;;;5023676;28;20135;-78
2022/06/23 09:43:44;;;;;;;0.00;0.00;;;28.70;70.70;;;;;;5059747;28;20142;-77
2022/06/23 09:46:37;;;;;;;0.25;0.25;;;28.90;69.90;;;;;;5020904;28;20056;-77
2022/06/23 09:49:33;;;;;;;0.00;0.00;;;29.20;67.40;;;;;;5043437;28;20049;-78
2022/06/23 09:52:18;;;;;;;0.00;0.00;;;29.30;68.60;;;;;;5026966;28;20028;-78
2022/06/23 09:54:55;;;;;;;0.00;0.00;;;29.30;66.10;;;;;;5044079;28;20064;-77
2022/06/23 09:57:39;;;;;;;0.10;0.10;;;29.20;67.60;;;;;;5111859;22;20668;-77
2022/06/23 10:00:07;;;;;;;0.00;0.00;;;29.30;68.50;;;;;;5032480;28;20029;-78
2022/06/23 10:02:39;;;;;;;0.00;0.00;;;29.40;68.70;;;;;;5050509;28;20384;-77
2022/06/23 10:05:08;;;;;;;6.13;0.20;;;29.40;66.70;;;;;;5033904;28;20108;-77
2022/06/23 10:08:10;;;;;;;0.03;0.03;;;29.50;67.20;;;;;;5033579;28;20546;-78
2022/06/23 10:10:44;;;;;;;0.25;0.25;;;29.20;68.10;;;;;;5052027;28;20079;-77
2022/06/23 10:13:28;;;;;;;0.00;0.00;;;29.50;68.30;;;;;;5051660;28;20083;-77
2022/06/23 10:16:36;;;;;;;0.00;0.00;;;29.50;66.90;;;;;;5017232;28;20032;-78
2022/06/23 10:19:40;;;;;;;1.75;1.10;;;29.90;66.70;;;;;;5051243;28;20036;-78
2022/06/23 10:22:36;;;;;;;0.28;0.28;;;30.00;64.50;;;;;;4970419;28;20446;-77
2022/06/23 10:25:16;;;;;;;3.30;0.85;;;30.00;64.30;;;;;;4970353;28;20414;-77
2022/06/23 10:28:12;;;;;;;0.00;0.00;;;30.00;65.40;;;;;;5015156;28;20040;-78
2022/06/23 10:31:10;;;;;;;0.00;0.00;;;30.40;64.50;;;;;;5033611;28;20025;-78
2022/06/23 10:33:48;;;;;;;0.85;0.70;;;30.80;62.70;;;;;;5005714;28;20061;-78
2022/06/23 10:36:33;;;;;;;0.00;0.00;;;30.70;61.90;;;;;;5033555;28;20029;-77
2022/06/23 10:39:16;;;;;;;0.08;0.08;;;30.40;63.60;;;;;;5017088;28;20036;-78
2022/06/23 10:41:45;;;;;;;0.03;0.03;;;30.20;63.10;;;;;;5033586;28;20404;-77
2022/06/23 10:44:45;;;;;;;0.00;0.00;;;30.30;63.60;;;;;;5051305;28;20013;-77
2022/06/23 10:47:22;;;;;;;1.48;0.68;;;30.60;62.00;;;;;;5033272;28;20446;-77
2022/06/23 10:50:13;;;;;;;0.40;0.40;;;30.80;61.10;;;;;;5051344;28;20025;-77
2022/06/23 10:53:06;;;;;;;0.22;0.20;;;30.50;60.80;;;;;;5051349;28;20052;-76
2022/06/23 10:55:50;;;;;;;0.68;0.30;;;30.10;61.10;;;;;;5033168;28;20102;-77
2022/06/23 10:58:41;;;;;;;0.00;0.00;;;30.00;61.60;;;;;;5032994;28;20102;-77
2022/06/23 11:01:14;;;;;;;0.00;0.00;;;30.20;61.50;;;;;;5051174;28;20024;-78
2022/06/23 11:04:21;;;;;;;0.00;0.00;;;30.70;61.00;;;;;;5033078;28;20033;-78
2022/06/23 11:07:14;;;;;;;0.20;0.20;;;31.30;59.70;;;;;;5033142;28;20404;-77
2022/06/23 11:10:14;;;;;;;0.28;0.28;;;30.90;59.20;;;;;;5033995;28;20056;-78
2022/06/23 11:13:05;;;;;;;0.00;0.00;;;31.10;59.30;;;;;;5036600;28;20024;-77
2022/06/23 11:15:59;;;;;;;0.38;0.10;;;31.20;58.00;;;;;;5054597;28;20534;-77
2022/06/23 11:18:56;;;;;;;1.48;0.55;;;31.10;58.20;;;;;;5027238;28;20033;-77
2022/06/23 11:21:31;;;;;;;3.35;0.50;;;30.70;58.90;;;;;;5054391;28;20116;-78
2022/06/23 11:24:06;;;;;;;0.45;0.30;;;30.60;59.40;;;;;;5019872;28;20424;-77
2022/06/23 11:26:42;;;;;;;0.20;0.20;;;30.60;59.00;;;;;;5054282;28;20021;-78
2022/06/23 11:29:27;;;;;;;0.70;0.40;;;30.70;58.90;;;;;;5036316;28;20025;-77
2022/06/23 11:32:12;;;;;;;0.30;0.30;;;30.70;58.80;;;;;;5037193;28;20047;-78
2022/06/23 11:34:55;;;;;;;2.83;0.68;;;30.80;59.50;;;;;;5054526;28;20025;-77
2022/06/23 11:37:44;;;;;;;0.38;0.38;;;30.50;58.50;;;;;;5054430;28;20475;-77
2022/06/23 11:40:21;;;;;;;0.25;0.25;;;30.40;58.90;;;;;;5039873;28;20028;-77
2022/06/23 11:43:06;;;;;;;0.80;0.30;;;30.20;58.70;;;;;;5041209;28;20448;-78
2022/06/23 11:46:11;;;;;;;10.77;6.93;;;30.30;59.10;;;;;;5056039;28;20024;-77
2022/06/23 11:48:43;;;;;;;0.00;0.00;;;30.40;59.40;;;;;;5063902;28;20032;-77
2022/06/23 11:51:50;;;;;;;0.03;0.03;;;30.00;61.10;;;;;;5052745;28;20029;-77
2022/06/23 11:54:35;;;;;;;1.27;0.80;;;29.90;61.10;;;;;;5035754;28;20438;-77
2022/06/23 11:57:19;;;;;;;31.67;0.93;;;29.70;62.10;;;;;;5035828;28;20472;-78
2022/06/23 11:59:59;;;;;;;1.02;0.47;;;29.70;61.00;;;;;;5036336;28;20419;-77
2022/06/23 12:02:25;;;;;;;0.57;0.43;;;29.70;61.50;;;;;;5053943;28;20556;-77
2022/06/23 12:05:03;;;;;;;0.13;0.08;;;29.50;63.90;;;;;;5053969;28;20100;-77
2022/06/23 12:07:51;;;;;;;0.00;0.00;;;29.10;64.00;;;;;;5035855;28;20052;-77
2022/06/23 12:10:21;;;;;;;1.55;0.55;;;29.20;63.30;;;;;;5036826;28;20025;-77
2022/06/23 12:12:50;;;;;;;1.30;0.77;;;29.20;61.30;;;;;;5053322;28;20021;-78
2022/06/23 12:15:20;;;;;;;8.77;0.60;;;29.40;62.80;;;;;;5040149;28;20028;-77
2022/06/23 12:17:58;;;;;;;0.00;0.00;;;29.10;61.30;;;;;;5041180;28;20029;-77
2022/06/23 12:20:55;;;;;;;0.00;0.00;;;28.90;60.50;;;;;;5072068;28;20211;-77
2022/06/23 12:23:41;;;;;;;0.10;0.10;;;29.30;59.00;;;;;;5053898;28;20032;-77
2022/06/23 12:26:27;;;;;;;0.28;0.20;;;29.30;61.40;;;;;;5071523;28;20019;-77
2022/06/23 12:29:08;;;;;;;2.67;0.85;;;29.20;60.40;;;;;;5073400;28;20063;-77
2022/06/23 12:31:58;;;;;;;0.20;0.20;;;29.20;60.70;;;;;;5075088;28;20024;-77
2022/06/23 12:35:02;;;;;;;0.05;0.03;;;29.10;61.50;;;;;;5075007;28;20067;-76
2022/06/23 12:37:44;;;;;;;0.57;0.30;;;29.10;61.00;;;;;;5039177;28;20376;-76
2022/06/23 12:40:17;;;;;;;1.75;0.38;;;29.10;60.40;;;;;;5056544;28;20111;-76
2022/06/23 12:42:55;;;;;;;0.03;0.03;;;29.00;59.40;;;;;;5055864;28;20024;-76
2022/06/23 12:45:44;;;;;;;0.22;0.22;;;28.80;60.20;;;;;;5074217;28;20492;-76
2022/06/23 12:48:38;;;;;;;0.00;0.00;;;28.80;61.50;;;;;;5056033;28;20559;-77
2022/06/23 12:51:12;;;;;;;0.15;0.15;;;29.00;61.70;;;;;;5073900;28;20048;-77
2022/06/23 12:54:02;;;;;;;0.00;0.00;;;29.10;61.80;;;;;;5039579;28;20025;-77
2022/06/23 12:56:39;;;;;;;11.27;2.53;;;29.00;62.10;;;;;;5073462;28;20024;-77
2022/06/23 12:59:23;;;;;;;0.08;0.08;;;29.10;62.60;;;;;;5055892;28;20059;-77
2022/06/23 13:02:04;;;;;;;0.30;0.17;;;28.90;61.50;;;;;;5055527;28;20066;-77
2022/06/23 13:04:51;;;;;;;2.55;0.47;;;28.80;60.40;;;;;;5016698;28;20029;-78
2022/06/23 13:07:33;;;;;;;0.75;0.65;;;28.60;63.00;;;;;;4999793;28;20032;-77
2022/06/23 13:10:10;;;;;;;0.10;0.10;;;28.50;62.80;;;;;;5016435;28;20045;-77
2022/06/23 13:13:13;;;;;;;8.57;7.38;;;28.40;63.80;;;;;;5016611;28;20113;-78
2022/06/23 13:15:51;;;;;;;2.15;0.30;;;28.50;64.00;;;;;;5016000;28;20028;-77
2022/06/23 13:18:37;;;;;;;2.30;0.85;;;28.40;63.60;;;;;;5016147;28;20021;-77
2022/06/23 13:21:29;;;;;;;0.08;0.08;;;28.40;63.70;;;;;;5033851;28;20025;-77
2022/06/23 13:24:02;;;;;;;2.38;0.38;;;28.40;64.00;;;;;;5033619;28;20026;-77
2022/06/23 13:26:36;;;;;;;2.55;1.45;;;28.50;63.00;;;;;;5016028;28;20021;-77
2022/06/23 13:29:15;;;;;;;30.35;4.63;;;28.50;63.50;;;;;;5033571;28;20040;-78
2022/06/23 13:32:01;;;;;;;0.93;0.45;;;28.60;64.30;;;;;;4999784;28;20112;-78
2022/06/23 13:34:28;;;;;;;0.10;0.10;;;28.60;64.50;;;;;;5015877;28;20022;-76
2022/06/23 13:37:10;;;;;;;0.10;0.10;;;28.30;65.40;;;;;;5033575;28;20029;-77
2022/06/23 13:40:01;;;;;;;0.30;0.25;;;28.20;66.00;;;;;;5016892;28;20048;-77
2022/06/23 13:42:50;;;;;;;5.35;0.95;;;28.30;64.40;;;;;;5033397;28;20503;-78
2022/06/23 13:45:30;;;;;;;1.65;0.65;;;28.10;63.80;;;;;;5015382;28;20080;-76
2022/06/23 13:48:15;;;;;;;0.00;0.00;;;28.00;65.90;;;;;;5021419;28;20108;-78
2022/06/23 13:50:59;;;;;;;0.30;0.30;;;28.10;67.40;;;;;;5020862;28;20029;-77
2022/06/23 13:53:28;;;;;;;4.00;1.35;;;28.30;68.00;;;;;;5032091;28;20029;-75
2022/06/23 13:56:18;;;;;;;0.15;0.15;;;28.10;68.80;;;;;;5032485;28;20026;-77
2022/06/23 13:58:54;;;;;;;0.60;0.60;;;28.20;67.40;;;;;;5031504;28;20033;-76
2022/06/23 14:01:48;;;;;;;3.67;0.85;;;28.30;67.20;;;;;;5030808;28;20033;-77
2022/06/23 14:04:24;;;;;;;2.25;1.08;;;28.20;68.60;;;;;;5032943;28;20018;-77